Time;durP1;ratioP1;P1;durP2;ratioP2;P2;SDS_P1;SDS_P2;PMS_P1;PMS_P2;Temp;Humidity;BMP_temperature;BMP_pressure;BME280_temperature;BME280_humidity;BME280_pressure;Samples;Min_cycle;Max_cycle;Signal;HPM_P1;HPM_P2
2022/05/08 00:02:22;;;;;;;25.65;13.93;;;12.20;99.90;;;;;;5006254;28;25086;-69
2022/05/08 00:04:51;;;;;;;19.63;12.95;;;12.30;99.90;;;;;;5005861;28;25064;-67
2022/05/08 00:07:17;;;;;;;20.90;13.25;;;12.30;99.90;;;;;;5004075;28;25115;-69
2022/05/08 00:09:44;;;;;;;21.67;13.55;;;12.20;99.90;;;;;;5005029;28;25073;-68
2022/05/08 00:12:13;;;;;;;21.05;13.13;;;12.20;99.90;;;;;;5005170;28;25132;-71
2022/05/08 00:14:40;;;;;;;20.75;12.20;;;12.20;99.90;;;;;;5006366;28;25062;-70
2022/05/08 00:17:06;;;;;;;21.10;12.18;;;12.20;99.90;;;;;;5003657;28;25091;-69
2022/05/08 00:19:32;;;;;;;16.63;12.23;;;12.10;99.90;;;;;;5005551;28;25063;-70
2022/05/08 00:21:57;;;;;;;21.23;12.75;;;12.10;99.90;;;;;;5006743;28;25058;-68
2022/05/08 00:24:23;;;;;;;19.15;12.57;;;12.10;99.90;;;;;;5006337;28;25120;-70
2022/05/08 00:26:50;;;;;;;19.50;12.32;;;12.10;99.90;;;;;;5006882;28;25083;-68
2022/05/08 00:29:16;;;;;;;25.45;12.38;;;12.10;99.90;;;;;;5007141;28;25060;-69
2022/05/08 00:31:42;;;;;;;23.95;12.48;;;12.10;99.90;;;;;;5008477;28;25052;-66
2022/05/08 00:34:08;;;;;;;28.60;12.85;;;12.10;99.90;;;;;;5008378;28;25068;-68
2022/05/08 00:36:34;;;;;;;18.55;12.43;;;12.10;99.90;;;;;;5005176;28;25083;-68
2022/05/08 00:39:00;;;;;;;24.42;13.30;;;12.00;99.90;;;;;;5006487;28;25075;-68
2022/05/08 00:41:25;;;;;;;22.48;11.73;;;12.10;99.90;;;;;;5006085;28;25108;-69
2022/05/08 00:43:51;;;;;;;22.17;12.63;;;12.10;99.90;;;;;;5006109;28;25085;-68
2022/05/08 00:46:17;;;;;;;19.38;12.07;;;12.10;99.90;;;;;;5006114;28;25115;-68
2022/05/08 00:48:44;;;;;;;16.58;11.07;;;12.10;99.90;;;;;;5004400;28;25068;-67
2022/05/08 00:51:15;;;;;;;19.02;9.93;;;12.10;99.90;;;;;;5006223;28;25153;-69
2022/05/08 00:53:52;;;;;;;15.85;10.48;;;12.10;99.90;;;;;;5003863;28;25069;-69
2022/05/08 00:56:20;;;;;;;19.38;11.18;;;12.10;99.90;;;;;;5005238;28;25059;-69
2022/05/08 00:58:54;;;;;;;22.17;10.40;;;12.10;99.90;;;;;;5005537;28;25094;-68
2022/05/08 01:01:20;;;;;;;20.52;10.90;;;12.10;99.90;;;;;;5004991;28;25398;-67
2022/05/08 01:03:46;;;;;;;18.25;10.77;;;12.10;99.90;;;;;;5007711;28;25105;-69
2022/05/08 01:06:16;;;;;;;22.15;11.75;;;12.10;99.90;;;;;;5009143;28;25145;-68
2022/05/08 01:08:46;;;;;;;17.20;10.02;;;12.10;99.90;;;;;;5007837;28;25058;-70
2022/05/08 01:11:12;;;;;;;18.75;10.65;;;12.10;99.90;;;;;;5009317;28;25089;-70
2022/05/08 01:13:39;;;;;;;23.58;12.02;;;12.10;99.90;;;;;;5008094;28;25158;-68
2022/05/08 01:16:10;;;;;;;26.38;12.30;;;12.10;99.90;;;;;;5008206;28;25071;-68
2022/05/08 01:18:35;;;;;;;22.20;12.07;;;12.00;99.90;;;;;;5007191;28;25101;-66
2022/05/08 01:21:01;;;;;;;24.08;12.20;;;12.00;99.90;;;;;;5009853;28;25114;-69
2022/05/08 01:23:27;;;;;;;18.90;10.55;;;11.90;99.90;;;;;;5012821;28;25070;-70
2022/05/08 01:25:54;;;;;;;25.88;12.25;;;12.00;99.90;;;;;;5026228;28;25078;-69
2022/05/08 01:28:22;;;;;;;27.90;10.90;;;11.90;99.90;;;;;;5014348;28;25106;-69
2022/05/08 01:30:50;;;;;;;24.45;12.32;;;11.90;99.90;;;;;;5007091;28;25157;-68
2022/05/08 01:33:17;;;;;;;26.42;11.23;;;11.90;99.90;;;;;;5008369;28;25086;-69
2022/05/08 01:35:43;;;;;;;23.40;11.10;;;12.00;99.90;;;;;;5009270;28;25136;-69
2022/05/08 01:38:11;;;;;;;22.63;10.82;;;12.10;99.90;;;;;;5009574;28;25072;-70
2022/05/08 01:40:37;;;;;;;21.80;10.57;;;12.10;99.90;;;;;;5007545;28;25074;-70
2022/05/08 01:43:03;;;;;;;19.90;11.00;;;12.10;99.90;;;;;;5004859;28;25059;-68
2022/05/08 01:45:29;;;;;;;22.52;11.93;;;12.00;99.90;;;;;;5008427;28;25093;-70
2022/05/08 01:50:39;;;;;;;22.23;11.90;;;12.00;99.90;;;;;;5008164;28;25060;-68
2022/05/08 01:53:05;;;;;;;21.92;12.93;;;11.90;99.90;;;;;;5007306;28;25091;-69
2022/05/08 01:55:30;;;;;;;21.70;12.65;;;11.80;99.90;;;;;;5008560;28;25062;-69
2022/05/08 01:57:56;;;;;;;21.85;13.35;;;11.70;99.90;;;;;;5007765;28;25061;-68
2022/05/08 02:00:22;;;;;;;21.77;11.98;;;11.70;99.90;;;;;;5006949;28;25138;-69
2022/05/08 02:02:49;;;;;;;19.35;11.38;;;11.60;99.90;;;;;;5008862;28;25065;-70
2022/05/08 02:05:20;;;;;;;18.95;10.80;;;11.60;97.30;;;;;;5010323;28;25063;-69
2022/05/08 02:07:47;;;;;;;17.17;9.98;;;11.50;92.10;;;;;;5009014;28;25120;-69
2022/05/08 02:10:14;;;;;;;19.50;9.90;;;11.40;75.00;;;;;;5006929;28;25067;-70
2022/05/08 02:12:40;;;;;;;15.32;8.40;;;11.40;68.30;;;;;;5008599;28;25157;-70
2022/05/08 02:15:08;;;;;;;15.82;9.05;;;11.40;60.50;;;;;;5008478;28;25077;-69
2022/05/08 02:17:34;;;;;;;20.90;8.20;;;11.30;52.10;;;;;;5008950;28;25098;-71
2022/05/08 02:20:00;;;;;;;22.60;8.40;;;11.20;42.60;;;;;;5011965;28;25175;-67
2022/05/08 02:22:26;;;;;;;20.48;7.32;;;11.20;30.20;;;;;;5010639;28;25097;-69
2022/05/08 02:24:51;;;;;;;21.00;6.82;;;11.10;28.60;;;;;;5009030;28;25092;-68
2022/05/08 02:27:17;;;;;;;22.92;7.68;;;11.10;27.90;;;;;;5012551;28;25080;-69
2022/05/08 02:29:46;;;;;;;22.27;7.72;;;11.10;26.70;;;;;;5011155;28;25097;-69
2022/05/08 02:32:12;;;;;;;23.23;6.95;;;11.00;25.30;;;;;;5011033;28;25108;-69
2022/05/08 02:34:38;;;;;;;27.40;7.53;;;11.00;25.60;;;;;;5012153;28;25074;-69
2022/05/08 02:37:04;;;;;;;23.50;6.95;;;10.90;25.10;;;;;;5011570;28;25064;-71
2022/05/08 02:39:29;;;;;;;29.50;7.10;;;10.90;26.50;;;;;;5011597;28;25061;-69
2022/05/08 02:41:55;;;;;;;29.20;6.72;;;10.90;25.30;;;;;;5009576;28;25073;-70
2022/05/08 02:44:20;;;;;;;27.75;6.22;;;10.80;28.00;;;;;;5011405;28;25152;-70
2022/05/08 02:46:46;;;;;;;28.00;6.38;;;10.80;27.10;;;;;;5010930;28;25081;-70
2022/05/08 02:49:12;;;;;;;25.42;5.60;;;10.70;29.40;;;;;;5011620;28;25154;-70
2022/05/08 02:51:37;;;;;;;29.23;6.55;;;10.70;29.80;;;;;;5010960;28;25135;-68
2022/05/08 02:54:03;;;;;;;25.42;5.50;;;10.70;30.40;;;;;;5025614;28;25092;-68
2022/05/08 02:59:12;;;;;;;26.45;6.30;;;10.70;30.80;;;;;;5009448;28;25103;-68
2022/05/08 03:01:38;;;;;;;34.15;6.28;;;10.60;35.40;;;;;;5008283;28;25180;-69
2022/05/08 03:04:04;;;;;;;28.75;6.25;;;10.60;34.50;;;;;;5010433;28;25075;-68
2022/05/08 03:06:29;;;;;;;30.63;6.40;;;10.50;35.50;;;;;;5009790;28;25087;-68
2022/05/08 03:08:55;;;;;;;28.17;6.85;;;10.40;37.80;;;;;;5009159;28;25051;-68
2022/05/08 03:11:26;;;;;;;27.20;6.45;;;10.40;38.90;;;;;;5008838;28;25108;-69
2022/05/08 03:13:53;;;;;;;31.63;7.10;;;10.40;39.90;;;;;;5007623;28;25162;-68
2022/05/08 03:16:19;;;;;;;29.05;7.32;;;10.40;40.80;;;;;;5007046;28;25095;-69
2022/05/08 03:18:45;;;;;;;31.08;6.43;;;10.40;39.60;;;;;;5005870;28;25061;-68
2022/05/08 03:21:13;;;;;;;34.45;6.88;;;10.30;43.10;;;;;;5007632;28;25137;-69
2022/05/08 03:23:40;;;;;;;27.65;6.10;;;10.30;45.30;;;;;;5005959;28;24850;-69
2022/05/08 03:26:06;;;;;;;32.17;5.90;;;10.20;44.10;;;;;;5006818;28;25059;-68
2022/05/08 03:28:33;;;;;;;28.90;6.57;;;10.20;45.20;;;;;;5007791;28;25045;-69
2022/05/08 03:30:59;;;;;;;26.10;5.85;;;10.10;45.20;;;;;;5008406;28;25067;-69
2022/05/08 03:33:29;;;;;;;26.25;6.88;;;10.00;47.30;;;;;;5008320;28;25069;-68
2022/05/08 03:35:55;;;;;;;33.20;7.60;;;10.00;48.10;;;;;;5007769;28;25093;-67
2022/05/08 03:38:22;;;;;;;30.17;5.85;;;9.90;51.00;;;;;;5008186;28;25063;-69
2022/05/08 03:40:48;;;;;;;28.38;6.45;;;10.00;52.50;;;;;;5008880;28;25115;-68
2022/05/08 03:43:13;;;;;;;25.15;5.68;;;10.00;52.90;;;;;;5009892;28;25099;-70
2022/05/08 03:45:39;;;;;;;26.83;5.57;;;10.00;51.70;;;;;;5013178;28;25063;-70
2022/05/08 03:48:05;;;;;;;29.80;7.18;;;10.00;51.40;;;;;;5018819;28;25076;-68
2022/05/08 03:50:31;;;;;;;32.55;6.47;;;9.90;52.30;;;;;;5012350;28;25094;-67
2022/05/08 03:52:57;;;;;;;24.67;5.50;;;9.90;52.60;;;;;;5008347;28;25092;-66
2022/05/08 03:55:23;;;;;;;20.67;4.78;;;9.90;55.30;;;;;;5018766;28;25085;-68
2022/05/08 03:57:49;;;;;;;27.67;6.18;;;9.90;56.00;;;;;;5014399;28;25071;-69
2022/05/08 04:00:15;;;;;;;24.08;5.65;;;9.90;55.40;;;;;;5023063;28;25087;-70
2022/05/08 04:02:41;;;;;;;27.75;6.72;;;9.90;52.40;;;;;;5026619;28;25097;-69
2022/05/08 04:05:09;;;;;;;28.88;7.18;;;9.80;59.00;;;;;;5028603;28;25086;-70
2022/05/08 04:07:35;;;;;;;29.23;5.97;;;9.80;58.30;;;;;;5029420;28;25083;-69
2022/05/08 04:10:01;;;;;;;36.75;6.50;;;9.80;59.10;;;;;;5026119;28;25085;-68
2022/05/08 04:12:27;;;;;;;27.90;6.72;;;9.90;61.60;;;;;;5011332;28;25080;-70
2022/05/08 04:14:53;;;;;;;51.97;7.57;;;9.80;59.90;;;;;;5013257;28;25063;-68
2022/05/08 04:17:19;;;;;;;32.78;6.82;;;9.80;58.20;;;;;;5025211;28;25066;-69
2022/05/08 04:19:46;;;;;;;26.27;6.30;;;9.80;59.20;;;;;;5022347;28;25087;-67
2022/05/08 04:24:57;;;;;;;29.30;6.00;;;9.70;65.40;;;;;;5024055;28;25084;-70
2022/05/08 04:27:23;;;;;;;26.23;6.72;;;9.60;68.20;;;;;;5025496;28;25080;-70
2022/05/08 04:29:49;;;;;;;30.42;8.00;;;9.60;68.00;;;;;;5026395;28;25075;-69
2022/05/08 04:32:14;;;;;;;34.63;7.22;;;9.60;69.10;;;;;;5018460;28;25097;-69
2022/05/08 04:34:40;;;;;;;29.35;5.75;;;9.60;74.20;;;;;;5021905;28;25083;-70
2022/05/08 04:37:05;;;;;;;30.52;6.15;;;9.70;73.00;;;;;;5021560;28;25065;-70
2022/05/08 04:39:32;;;;;;;29.00;5.85;;;9.70;73.40;;;;;;5022777;28;25099;-69
2022/05/08 04:41:59;;;;;;;35.60;5.63;;;9.70;65.30;;;;;;5038438;28;25068;-70
2022/05/08 04:44:24;;;;;;;23.45;6.20;;;9.70;64.90;;;;;;5013013;28;25083;-68
2022/05/08 04:46:50;;;;;;;23.98;5.32;;;9.70;66.70;;;;;;5008266;28;25060;-68
2022/05/08 04:49:15;;;;;;;24.92;6.05;;;9.70;66.10;;;;;;5015314;28;25109;-69
2022/05/08 04:51:41;;;;;;;27.30;5.82;;;9.60;65.30;;;;;;5019144;28;25098;-69
2022/05/08 04:54:06;;;;;;;34.33;6.68;;;9.60;66.70;;;;;;5015064;28;25077;-69
2022/05/08 04:56:32;;;;;;;31.63;7.05;;;9.60;64.30;;;;;;5018069;28;25078;-70
2022/05/08 04:58:58;;;;;;;28.63;6.65;;;9.40;63.20;;;;;;5012641;28;25097;-70
2022/05/08 05:01:24;;;;;;;36.22;6.88;;;9.50;65.60;;;;;;5010676;28;25083;-67
2022/05/08 05:03:50;;;;;;;31.48;6.28;;;9.50;68.70;;;;;;5015077;28;25078;-70
2022/05/08 05:06:16;;;;;;;30.90;7.05;;;9.50;64.20;;;;;;5016224;28;25105;-70
2022/05/08 05:08:42;;;;;;;34.45;6.40;;;9.50;62.10;;;;;;5013477;28;25104;-69
2022/05/08 05:11:09;;;;;;;24.77;6.00;;;9.50;66.70;;;;;;5012302;28;25161;-70
2022/05/08 05:13:38;;;;;;;29.35;5.22;;;9.60;68.30;;;;;;5015102;28;25084;-69
2022/05/08 05:16:07;;;;;;;31.92;6.57;;;9.50;62.50;;;;;;5016629;28;25074;-71
2022/05/08 05:18:32;;;;;;;31.70;5.70;;;9.50;66.50;;;;;;5013163;28;25076;-68
2022/05/08 05:20:58;;;;;;;23.20;5.45;;;9.60;67.10;;;;;;5011761;28;25106;-68
2022/05/08 05:23:24;;;;;;;29.70;6.20;;;9.60;60.30;;;;;;5012201;28;25118;-67
2022/05/08 05:25:50;;;;;;;32.30;6.10;;;9.40;60.10;;;;;;5011641;28;25157;-69
2022/05/08 05:28:16;;;;;;;27.67;5.88;;;9.40;62.30;;;;;;5009239;28;25067;-69
2022/05/08 05:30:42;;;;;;;34.60;6.68;;;9.50;63.20;;;;;;5009809;28;25057;-68
2022/05/08 05:33:10;;;;;;;29.52;6.40;;;9.40;56.60;;;;;;5007622;28;25068;-68
2022/05/08 05:35:37;;;;;;;32.95;7.05;;;9.40;57.20;;;;;;5013923;28;25061;-70
2022/05/08 05:38:03;;;;;;;30.33;6.38;;;9.40;55.60;;;;;;5011549;28;25150;-69
2022/05/08 05:40:28;;;;;;;30.70;6.68;;;9.40;59.30;;;;;;5006703;28;25081;-70
2022/05/08 05:42:57;;;;;;;29.92;6.35;;;9.50;56.70;;;;;;5005457;28;25079;-69
2022/05/08 05:45:23;;;;;;;37.58;6.85;;;9.60;54.80;;;;;;5004848;28;25105;-69
2022/05/08 05:47:53;;;;;;;35.47;6.03;;;9.70;49.00;;;;;;5006002;28;25093;-70
2022/05/08 05:50:24;;;;;;;27.70;6.13;;;9.70;45.80;;;;;;5005693;28;25171;-68
2022/05/08 05:52:51;;;;;;;31.48;5.95;;;9.60;43.20;;;;;;5004182;28;25063;-70
2022/05/08 05:55:17;;;;;;;29.27;6.70;;;9.60;42.10;;;;;;5003786;28;25079;-69
2022/05/08 05:57:43;;;;;;;33.15;7.03;;;9.70;43.00;;;;;;5006628;28;25053;-70
2022/05/08 06:00:17;;;;;;;27.38;7.03;;;9.80;40.40;;;;;;5007965;28;25080;-70
2022/05/08 06:02:44;;;;;;;30.80;6.25;;;9.80;37.40;;;;;;5008336;28;25117;-69
2022/05/08 06:05:11;;;;;;;31.30;6.50;;;9.80;34.70;;;;;;5008510;28;25089;-68
2022/05/08 06:07:38;;;;;;;20.45;5.68;;;10.00;37.30;;;;;;5008905;28;25117;-69
2022/05/08 06:10:06;;;;;;;28.95;7.13;;;9.90;31.90;;;;;;5009206;28;25068;-69
2022/05/08 06:12:32;;;;;;;32.47;5.90;;;9.90;33.50;;;;;;5008438;28;25110;-69
2022/05/08 06:14:57;;;;;;;27.13;6.43;;;10.20;32.10;;;;;;5008801;28;25089;-68
2022/05/08 06:17:23;;;;;;;30.15;6.10;;;10.10;27.10;;;;;;5006223;28;25061;-70
2022/05/08 06:19:49;;;;;;;35.00;6.18;;;10.10;27.70;;;;;;5008728;28;25046;-68
2022/05/08 06:22:15;;;;;;;31.77;7.25;;;10.10;27.00;;;;;;5008203;28;25125;-69
2022/05/08 06:24:40;;;;;;;34.60;7.45;;;10.20;23.30;;;;;;5009026;28;25074;-69
2022/05/08 06:27:06;;;;;;;29.10;6.43;;;10.30;22.60;;;;;;5012539;28;25087;-68
2022/05/08 06:29:32;;;;;;;36.40;7.53;;;10.50;23.90;;;;;;5021884;28;25079;-70
2022/05/08 06:31:58;;;;;;;31.40;5.97;;;10.70;18.50;;;;;;5021601;28;25063;-70
2022/05/08 06:34:26;;;;;;;32.53;5.85;;;10.80;18.00;;;;;;5023664;28;25072;-70
2022/05/08 06:36:52;;;;;;;29.92;5.85;;;10.80;14.30;;;;;;5020062;28;25086;-68
2022/05/08 06:39:18;;;;;;;23.20;6.65;;;10.70;8.80;;;;;;5023972;28;25063;-73
2022/05/08 06:41:43;;;;;;;31.10;6.38;;;10.90;10.00;;;;;;5024943;28;25070;-71
2022/05/08 06:44:09;;;;;;;30.38;6.32;;;10.90;7.50;;;;;;5023202;28;25135;-70
2022/05/08 06:46:36;;;;;;;30.83;6.50;;;11.00;7.00;;;;;;5022402;28;25055;-70
2022/05/08 06:49:02;;;;;;;25.05;6.07;;;10.90;8.80;;;;;;5025263;28;25074;-68
2022/05/08 06:51:29;;;;;;;32.53;6.00;;;11.00;5.80;;;;;;5020289;28;25169;-72
2022/05/08 06:53:54;;;;;;;24.23;5.75;;;10.90;5.00;;;;;;5017427;28;25106;-69
2022/05/08 06:56:20;;;;;;;19.13;5.07;;;11.00;4.10;;;;;;5018938;28;25076;-72
2022/05/08 07:01:38;;;;;;;17.15;4.90;;;11.20;1.00;;;;;;5011246;28;25076;-71
2022/05/08 07:04:05;;;;;;;36.17;5.93;;;11.20;1.00;;;;;;5012645;28;25113;-69
2022/05/08 07:06:31;;;;;;;34.28;5.57;;;11.20;1.00;;;;;;5015487;28;25075;-70
2022/05/08 07:08:57;;;;;;;21.63;5.03;;;11.40;1.00;;;;;;5019155;28;25075;-72
2022/05/08 07:11:23;;;;;;;26.42;5.10;;;11.50;1.00;;;;;;5026959;28;25072;-71
2022/05/08 07:13:49;;;;;;;24.50;6.70;;;11.80;1.00;;;;;;5026428;28;25059;-71
2022/05/08 07:16:14;;;;;;;25.85;5.55;;;11.70;1.00;;;;;;5027059;28;25065;-70
2022/05/08 07:18:40;;;;;;;24.90;5.53;;;11.70;1.00;;;;;;5041385;28;25066;-70
2022/05/08 07:21:05;;;;;;;23.73;5.03;;;11.70;1.00;;;;;;5016788;28;25063;-71
2022/05/08 07:23:32;;;;;;;33.08;5.78;;;11.80;1.00;;;;;;5008768;28;25126;-68
2022/05/08 07:25:58;;;;;;;27.42;5.78;;;12.00;1.00;;;;;;5009880;28;25102;-69
2022/05/08 07:28:24;;;;;;;27.65;5.50;;;12.10;1.00;;;;;;5006588;28;25092;-70
2022/05/08 07:30:50;;;;;;;29.23;6.85;;;11.90;1.00;;;;;;5007372;28;25157;-71
2022/05/08 07:33:16;;;;;;;29.10;4.97;;;11.90;1.00;;;;;;5008444;28;25087;-70
2022/05/08 07:38:28;;;;;;;31.23;5.85;;;11.90;1.00;;;;;;5007929;28;25066;-71
2022/05/08 07:40:54;;;;;;;20.38;4.70;;;12.20;1.00;;;;;;5004920;28;25058;-71
2022/05/08 07:43:20;;;;;;;15.52;4.50;;;12.40;1.00;;;;;;5007626;28;25073;-74
2022/05/08 07:45:45;;;;;;;25.85;5.05;;;12.50;1.00;;;;;;5008193;28;25071;-70
2022/05/08 07:48:11;;;;;;;26.15;5.13;;;12.70;1.00;;;;;;5009248;28;25092;-72
2022/05/08 07:50:37;;;;;;;28.83;5.20;;;13.10;1.00;;;;;;5010610;28;25136;-70
2022/05/08 07:53:02;;;;;;;28.73;7.00;;;13.10;1.00;;;;;;5009020;28;25066;-70
2022/05/08 07:55:28;;;;;;;27.42;5.97;;;12.80;1.00;;;;;;5007678;28;25070;-71
2022/05/08 07:57:54;;;;;;;24.60;4.65;;;13.00;1.00;;;;;;5007537;28;25141;-71
2022/05/08 08:00:19;;;;;;;24.15;5.25;;;13.10;1.00;;;;;;5008386;28;25104;-73
2022/05/08 08:02:45;;;;;;;21.75;5.30;;;12.80;1.00;;;;;;5008364;28;25058;-70
2022/05/08 08:05:10;;;;;;;25.08;4.15;;;12.90;1.00;;;;;;5009510;28;25072;-72
2022/05/08 08:07:36;;;;;;;22.05;4.43;;;13.30;1.00;;;;;;5002521;28;25067;-73
2022/05/08 08:10:06;;;;;;;22.65;4.03;;;13.30;1.00;;;;;;5002677;28;25093;-71
2022/05/08 08:12:32;;;;;;;20.15;5.05;;;13.40;1.00;;;;;;5007151;28;25078;-70
2022/05/08 08:14:59;;;;;;;18.23;4.88;;;13.40;1.00;;;;;;5009526;28;25072;-72
2022/05/08 08:17:25;;;;;;;20.98;4.90;;;13.70;1.00;;;;;;5013593;28;25122;-70
2022/05/08 08:19:51;;;;;;;21.40;4.93;;;13.50;1.00;;;;;;5015223;28;25081;-74
2022/05/08 08:22:17;;;;;;;22.75;4.63;;;13.50;1.00;;;;;;5013547;28;25079;-73
2022/05/08 08:24:42;;;;;;;25.52;4.90;;;13.70;1.00;;;;;;5012908;28;25050;-71
2022/05/08 08:27:08;;;;;;;17.50;5.03;;;13.20;1.00;;;;;;5008605;28;25078;-72
2022/05/08 08:29:34;;;;;;;22.45;4.22;;;13.20;1.00;;;;;;5006072;28;25056;-72
2022/05/08 08:31:59;;;;;;;27.90;4.75;;;13.80;1.00;;;;;;5005089;28;25143;-72
2022/05/08 08:34:26;;;;;;;13.77;4.40;;;14.20;1.00;;;;;;5010068;28;25093;-73
2022/05/08 08:36:52;;;;;;;18.30;5.18;;;14.40;1.00;;;;;;5010223;28;25046;-69
2022/05/08 08:39:18;;;;;;;17.50;4.47;;;14.20;1.00;;;;;;5011147;28;25105;-70
2022/05/08 08:41:53;;;;;;;19.33;4.72;;;14.30;1.00;;;;;;5008378;28;25103;-70
2022/05/08 08:50:02;;;;;;;21.52;4.05;;;14.00;1.00;;;;;;5009387;28;25061;-72
2022/05/08 08:52:27;;;;;;;15.65;4.25;;;13.90;1.00;;;;;;5008812;28;25173;-70
2022/05/08 08:54:53;;;;;;;15.35;4.05;;;13.90;1.00;;;;;;5007137;28;25106;-71
2022/05/08 08:57:19;;;;;;;22.90;4.70;;;14.00;1.00;;;;;;5007745;28;25059;-74
2022/05/08 08:59:44;;;;;;;20.20;4.43;;;14.20;1.00;;;;;;5012133;28;25143;-72
2022/05/08 09:02:15;;;;;;;19.05;5.13;;;14.60;1.00;;;;;;5027356;28;25081;-73
2022/05/08 09:04:42;;;;;;;19.10;4.88;;;15.20;1.00;;;;;;5008828;28;25057;-71
2022/05/08 09:07:39;;;;;;;20.13;4.15;;;15.10;1.00;;;;;;5010972;28;25062;-73
2022/05/08 09:10:08;;;;;;;19.25;4.47;;;15.10;1.00;;;;;;5013874;28;25079;-74
2022/05/08 09:12:34;;;;;;;17.80;4.75;;;15.10;1.00;;;;;;5013450;28;25065;-71
2022/05/08 09:14:59;;;;;;;20.08;5.32;;;15.00;1.00;;;;;;5015319;28;25055;-70
2022/05/08 09:17:43;;;;;;;20.20;4.82;;;14.90;1.00;;;;;;5015054;28;25129;-72
2022/05/08 09:20:31;;;;;;;19.13;5.03;;;14.80;1.00;;;;;;5013597;28;25133;-75
2022/05/08 09:23:04;;;;;;;16.17;4.40;;;14.60;1.00;;;;;;5013472;28;25110;-71
2022/05/08 09:25:44;;;;;;;14.98;4.43;;;14.90;1.00;;;;;;5010652;28;25133;-73
2022/05/08 09:28:14;;;;;;;18.85;4.22;;;15.10;1.00;;;;;;5011825;28;25174;-74
2022/05/08 09:30:53;;;;;;;23.55;4.28;;;15.30;1.00;;;;;;5011779;28;25087;-72
2022/05/08 09:33:26;;;;;;;18.98;4.25;;;15.70;1.00;;;;;;5011732;28;25073;-74
2022/05/08 09:35:52;;;;;;;13.85;4.63;;;15.70;1.00;;;;;;5010489;28;25175;-74
2022/05/08 09:38:17;;;;;;;15.57;4.30;;;15.90;1.00;;;;;;5010555;28;25111;-73
2022/05/08 09:40:45;;;;;;;19.13;4.22;;;15.30;1.00;;;;;;5011921;28;25051;-74
2022/05/08 09:43:29;;;;;;;15.98;4.60;;;15.60;1.00;;;;;;5011706;28;25065;-72
2022/05/08 09:45:58;;;;;;;17.10;4.22;;;15.60;1.00;;;;;;5009815;28;25108;-73
2022/05/08 09:48:28;;;;;;;19.23;4.25;;;15.80;1.00;;;;;;5008482;28;25150;-73
2022/05/08 09:50:59;;;;;;;16.55;3.80;;;15.30;1.00;;;;;;5009433;28;25074;-71
2022/05/08 09:53:25;;;;;;;16.48;4.13;;;15.60;1.00;;;;;;5012195;28;25097;-73
2022/05/08 09:55:55;;;;;;;18.40;3.75;;;15.70;1.00;;;;;;5013203;28;25135;-71
2022/05/08 09:58:22;;;;;;;12.48;3.20;;;15.80;1.00;;;;;;5014515;28;25054;-73
2022/05/08 10:00:48;;;;;;;19.02;4.10;;;16.10;1.00;;;;;;5018816;28;25072;-74
2022/05/08 10:03:15;;;;;;;15.07;3.72;;;16.60;1.00;;;;;;5020505;28;25055;-72
2022/05/08 10:05:42;;;;;;;18.00;4.45;;;16.90;1.00;;;;;;5011547;28;25069;-75
2022/05/08 10:08:09;;;;;;;17.48;4.43;;;16.30;1.00;;;;;;5011890;28;25065;-72
2022/05/08 10:13:54;;;;;;;15.82;3.10;;;15.80;1.00;;;;;;5016119;28;25094;-73
2022/05/08 10:16:45;;;;;;;20.95;3.72;;;15.90;1.00;;;;;;5016107;28;25062;-70
2022/05/08 10:19:19;;;;;;;16.85;4.00;;;16.30;1.00;;;;;;5011953;28;25075;-69
2022/05/08 10:22:03;;;;;;;18.20;4.68;;;16.60;1.00;;;;;;5008429;28;25145;-70
2022/05/08 10:24:33;;;;;;;16.02;4.32;;;16.70;1.00;;;;;;5010889;28;25079;-70
2022/05/08 10:27:14;;;;;;;18.85;4.30;;;17.10;1.00;;;;;;5013242;28;25117;-71
2022/05/08 10:29:43;;;;;;;12.00;3.73;;;16.40;1.00;;;;;;5010129;28;25058;-70
2022/05/08 10:32:13;;;;;;;22.70;5.15;;;16.90;1.00;;;;;;5015064;28;25134;-71
2022/05/08 10:34:40;;;;;;;10.85;3.35;;;17.20;1.00;;;;;;5036654;28;25052;-71
2022/05/08 10:37:12;;;;;;;16.88;4.05;;;16.90;1.00;;;;;;5036369;28;25076;-73
2022/05/08 10:39:41;;;;;;;17.98;4.55;;;17.10;1.00;;;;;;5031059;28;25081;-72
2022/05/08 10:42:50;;;;;;;17.85;4.22;;;16.50;1.00;;;;;;5025132;28;25060;-71
2022/05/08 10:45:30;;;;;;;15.32;4.25;;;16.10;1.00;;;;;;5016464;28;25090;-73
2022/05/08 10:47:56;;;;;;;17.60;3.72;;;16.80;1.00;;;;;;5011939;28;25070;-71
2022/05/08 10:50:22;;;;;;;13.23;3.80;;;16.90;1.00;;;;;;5012794;28;25044;-69
2022/05/08 10:52:47;;;;;;;18.05;3.80;;;16.60;1.00;;;;;;5010588;28;25050;-69
2022/05/08 10:55:15;;;;;;;17.13;3.80;;;16.80;1.00;;;;;;5011455;28;25082;-71
2022/05/08 10:57:42;;;;;;;10.95;3.40;;;17.30;1.00;;;;;;5008396;28;25100;-70
2022/05/08 11:00:19;;;;;;;16.65;4.00;;;17.30;1.00;;;;;;5010818;28;25063;-71
2022/05/08 11:02:51;;;;;;;16.02;4.60;;;17.70;1.00;;;;;;5009691;28;25072;-71
2022/05/08 11:05:23;;;;;;;14.85;3.58;;;17.00;1.00;;;;;;5004095;28;25062;-69
2022/05/08 11:07:51;;;;;;;15.73;4.03;;;17.20;1.00;;;;;;5006860;28;25201;-70
2022/05/08 11:10:37;;;;;;;9.98;2.97;;;17.60;1.00;;;;;;5006744;28;25097;-73
2022/05/08 11:13:09;;;;;;;19.05;4.05;;;17.70;1.00;;;;;;5006152;28;25107;-70
2022/05/08 11:15:41;;;;;;;10.25;3.00;;;18.30;1.00;;;;;;5005661;28;25065;-71
2022/05/08 11:18:11;;;;;;;13.15;3.20;;;18.40;1.00;;;;;;5007844;28;25077;-71
2022/05/08 11:20:45;;;;;;;14.60;3.30;;;18.10;1.00;;;;;;5007770;28;25063;-70
2022/05/08 11:23:12;;;;;;;12.05;3.03;;;18.50;1.00;;;;;;5010555;28;25119;-73
2022/05/08 11:25:38;;;;;;;8.95;2.92;;;18.40;1.00;;;;;;5009196;28;25114;-77
2022/05/08 11:28:04;;;;;;;13.73;3.15;;;18.20;1.00;;;;;;5009058;28;25098;-70
2022/05/08 11:30:35;;;;;;;11.40;3.13;;;17.90;1.00;;;;;;5004697;28;25076;-71
2022/05/08 11:36:05;;;;;;;13.80;3.55;;;18.20;1.00;;;;;;5010455;28;25171;-70
2022/05/08 11:38:41;;;;;;;9.77;2.88;;;18.50;1.00;;;;;;5013673;28;25073;-70
2022/05/08 11:41:12;;;;;;;10.30;3.00;;;18.60;1.00;;;;;;5010016;28;25113;-68
2022/05/08 11:43:42;;;;;;;11.32;3.38;;;18.00;1.00;;;;;;5012403;28;25056;-71
2022/05/08 11:46:09;;;;;;;14.85;3.78;;;18.00;1.00;;;;;;5008394;28;25060;-70
2022/05/08 11:48:42;;;;;;;13.68;3.83;;;18.00;1.00;;;;;;5008777;28;25071;-69
2022/05/08 11:51:09;;;;;;;13.88;3.72;;;17.30;1.00;;;;;;4993107;28;25063;-70
2022/05/08 11:53:38;;;;;;;13.98;3.25;;;17.40;1.00;;;;;;5009473;28;25081;-70
2022/05/08 11:56:26;;;;;;;15.15;3.83;;;17.80;1.00;;;;;;5027098;28;25067;-70
2022/05/08 11:58:56;;;;;;;8.05;2.80;;;17.90;1.00;;;;;;5023258;28;25043;-68
2022/05/08 12:01:27;;;;;;;10.80;2.80;;;17.80;1.00;;;;;;5022086;28;25074;-71
2022/05/08 12:03:53;;;;;;;8.88;3.03;;;17.60;1.00;;;;;;5022179;28;25090;-71
2022/05/08 12:06:20;;;;;;;10.80;2.83;;;17.50;1.00;;;;;;5017242;28;25101;-69
2022/05/08 12:08:45;;;;;;;9.82;2.95;;;17.40;1.00;;;;;;5021678;28;25157;-70
2022/05/08 12:11:26;;;;;;;15.43;3.67;;;17.90;1.00;;;;;;5006963;28;25117;-68
2022/05/08 12:14:00;;;;;;;13.85;2.90;;;17.40;1.00;;;;;;5003341;28;25143;-69
2022/05/08 12:16:26;;;;;;;7.85;3.20;;;18.10;1.00;;;;;;5006225;28;25146;-71
2022/05/08 12:19:12;;;;;;;12.70;3.03;;;18.40;1.00;;;;;;5002543;28;25091;-69
2022/05/08 12:21:40;;;;;;;9.18;2.55;;;18.00;1.00;;;;;;5005892;28;25068;-70
2022/05/08 12:24:24;;;;;;;11.45;4.22;;;17.90;1.00;;;;;;5005559;28;25070;-69
2022/05/08 12:26:50;;;;;;;12.25;3.10;;;18.00;1.00;;;;;;5005861;28;25109;-70
2022/05/08 12:29:21;;;;;;;8.85;2.72;;;18.60;1.00;;;;;;5006962;28;25096;-69
2022/05/08 12:31:50;;;;;;;12.60;4.32;;;18.80;1.00;;;;;;5006019;28;25098;-71
2022/05/08 12:34:19;;;;;;;11.50;3.25;;;18.20;1.00;;;;;;5006868;28;25120;-70
2022/05/08 12:36:46;;;;;;;10.35;3.03;;;18.30;1.00;;;;;;5008576;28;25055;-70
2022/05/08 12:39:11;;;;;;;11.52;2.40;;;17.80;1.00;;;;;;5006322;28;25065;-71
2022/05/08 12:41:38;;;;;;;6.95;3.38;;;18.40;1.00;;;;;;5005812;28;25159;-70
2022/05/08 12:44:04;;;;;;;12.55;2.92;;;18.60;1.00;;;;;;5005282;28;25134;-70
2022/05/08 12:46:30;;;;;;;8.45;2.97;;;18.40;1.00;;;;;;5005590;28;25103;-68
2022/05/08 12:49:04;;;;;;;11.00;3.17;;;18.40;1.00;;;;;;5005507;28;25113;-69
2022/05/08 12:51:32;;;;;;;10.07;2.38;;;18.10;1.00;;;;;;5004492;28;25132;-69
2022/05/08 12:53:57;;;;;;;14.30;4.00;;;18.30;1.00;;;;;;5005006;28;25061;-69
2022/05/08 12:56:24;;;;;;;10.73;3.30;;;18.20;1.00;;;;;;5004274;28;25053;-71
2022/05/08 13:01:34;;;;;;;12.85;3.17;;;18.10;1.00;;;;;;5008467;28;25087;-71
2022/05/08 13:04:00;;;;;;;11.50;2.88;;;17.80;1.00;;;;;;5009226;28;25063;-68
2022/05/08 13:06:26;;;;;;;11.90;3.22;;;17.80;1.00;;;;;;5005800;28;25101;-71
2022/05/08 13:08:53;;;;;;;9.48;2.88;;;17.50;1.00;;;;;;5008246;28;25124;-70
2022/05/08 13:11:19;;;;;;;12.88;2.60;;;17.40;1.00;;;;;;5009165;28;25074;-68
2022/05/08 13:13:44;;;;;;;10.05;3.63;;;17.40;1.00;;;;;;5008425;28;25061;-71
2022/05/08 13:16:14;;;;;;;12.90;3.65;;;17.00;1.00;;;;;;5008521;28;25063;-68